sensor_id;sensor_type;location;lat;lon;timestamp;P1;durP1;ratioP1;P2;durP2;ratioP2
64649;SDS011;51061;45.258;38.112;2022-09-03T00:00:08;5.45;;;2.35;;
64649;SDS011;51061;45.258;38.112;2022-09-03T00:02:18;12.07;;;2.20;;
64649;SDS011;51061;45.258;38.112;2022-09-03T00:05:09;5.05;;;1.90;;
64649;SDS011;51061;45.258;38.112;2022-09-03T00:10:26;6.10;;;2.20;;
64649;SDS011;51061;45.258;38.112;2022-09-03T00:12:56;9.02;;;2.00;;
64649;SDS011;51061;45.258;38.112;2022-09-03T00:15:27;16.08;;;2.28;;
64649;SDS011;51061;45.258;38.112;2022-09-03T00:18:01;4.53;;;2.03;;
64649;SDS011;51061;45.258;38.112;2022-09-03T00:20:40;7.00;;;2.30;;
64649;SDS011;51061;45.258;38.112;2022-09-03T00:23:10;11.82;;;2.38;;
64649;SDS011;51061;45.258;38.112;2022-09-03T00:28:13;8.27;;;2.10;;
64649;SDS011;51061;45.258;38.112;2022-09-03T00:30:45;8.05;;;2.25;;
64649;SDS011;51061;45.258;38.112;2022-09-03T00:33:23;10.82;;;2.20;;
64649;SDS011;51061;45.258;38.112;2022-09-03T00:36:03;8.20;;;2.10;;
64649;SDS011;51061;45.258;38.112;2022-09-03T00:38:36;4.82;;;1.80;;
64649;SDS011;51061;45.258;38.112;2022-09-03T00:44:11;5.95;;;2.00;;
64649;SDS011;51061;45.258;38.112;2022-09-03T00:46:48;6.93;;;2.13;;
64649;SDS011;51061;45.258;38.112;2022-09-03T00:49:35;6.55;;;2.00;;
64649;SDS011;51061;45.258;38.112;2022-09-03T01:00:11;5.70;;;2.28;;
64649;SDS011;51061;45.258;38.112;2022-09-03T01:08:31;6.78;;;1.92;;
64649;SDS011;51061;45.258;38.112;2022-09-03T01:25:37;8.25;;;2.17;;
64649;SDS011;51061;45.258;38.112;2022-09-03T01:30:26;4.97;;;1.88;;
64649;SDS011;51061;45.258;38.112;2022-09-03T01:33:14;7.32;;;2.05;;
64649;SDS011;51061;45.258;38.112;2022-09-03T01:35:47;6.25;;;1.80;;
64649;SDS011;51061;45.258;38.112;2022-09-03T01:43:54;8.00;;;1.95;;
64649;SDS011;51061;45.258;38.112;2022-09-03T01:46:40;11.05;;;3.15;;
64649;SDS011;51061;45.258;38.112;2022-09-03T01:52:00;11.73;;;2.20;;
64649;SDS011;51061;45.258;38.112;2022-09-03T02:00:15;9.93;;;2.53;;
64649;SDS011;51061;45.258;38.112;2022-09-03T02:02:45;6.07;;;2.10;;
64649;SDS011;51061;45.258;38.112;2022-09-03T02:05:17;9.20;;;2.38;;
64649;SDS011;51061;45.258;38.112;2022-09-03T02:07:55;16.02;;;2.78;;
64649;SDS011;51061;45.258;38.112;2022-09-03T02:10:46;12.95;;;2.40;;
64649;SDS011;51061;45.258;38.112;2022-09-03T02:15:51;6.88;;;2.33;;
64649;SDS011;51061;45.258;38.112;2022-09-03T02:18:24;7.95;;;2.30;;
64649;SDS011;51061;45.258;38.112;2022-09-03T02:20:55;5.28;;;2.10;;
64649;SDS011;51061;45.258;38.112;2022-09-03T02:23:23;5.65;;;2.35;;
64649;SDS011;51061;45.258;38.112;2022-09-03T02:25:51;5.38;;;2.15;;
64649;SDS011;51061;45.258;38.112;2022-09-03T02:28:21;12.73;;;2.10;;
64649;SDS011;51061;45.258;38.112;2022-09-03T02:30:48;8.50;;;2.20;;
64649;SDS011;51061;45.258;38.112;2022-09-03T02:33:15;4.50;;;2.10;;
64649;SDS011;51061;45.258;38.112;2022-09-03T02:35:41;9.23;;;2.53;;
64649;SDS011;51061;45.258;38.112;2022-09-03T02:43:38;9.88;;;1.92;;
64649;SDS011;51061;45.258;38.112;2022-09-03T02:46:29;9.40;;;2.60;;
64649;SDS011;51061;45.258;38.112;2022-09-03T02:49:01;7.15;;;2.70;;
64649;SDS011;51061;45.258;38.112;2022-09-03T02:53:56;12.75;;;2.58;;
64649;SDS011;51061;45.258;38.112;2022-09-03T02:58:52;6.78;;;2.00;;
64649;SDS011;51061;45.258;38.112;2022-09-03T03:01:19;7.68;;;2.97;;
64649;SDS011;51061;45.258;38.112;2022-09-03T03:03:45;8.18;;;2.35;;
64649;SDS011;51061;45.258;38.112;2022-09-03T03:06:11;6.68;;;2.22;;
64649;SDS011;51061;45.258;38.112;2022-09-03T03:08:38;8.25;;;2.45;;
64649;SDS011;51061;45.258;38.112;2022-09-03T03:11:05;8.07;;;2.00;;
64649;SDS011;51061;45.258;38.112;2022-09-03T03:13:32;9.48;;;2.40;;
64649;SDS011;51061;45.258;38.112;2022-09-03T03:15:59;13.43;;;2.60;;
64649;SDS011;51061;45.258;38.112;2022-09-03T03:18:27;11.77;;;2.35;;
64649;SDS011;51061;45.258;38.112;2022-09-03T03:20:53;12.70;;;2.20;;
64649;SDS011;51061;45.258;38.112;2022-09-03T03:23:19;13.88;;;2.70;;
64649;SDS011;51061;45.258;38.112;2022-09-03T03:25:46;13.82;;;3.42;;
64649;SDS011;51061;45.258;38.112;2022-09-03T03:28:12;8.35;;;2.30;;
64649;SDS011;51061;45.258;38.112;2022-09-03T03:30:39;21.70;;;2.78;;
64649;SDS011;51061;45.258;38.112;2022-09-03T03:33:08;9.18;;;2.25;;
64649;SDS011;51061;45.258;38.112;2022-09-03T03:35:34;17.80;;;3.15;;
64649;SDS011;51061;45.258;38.112;2022-09-03T03:38:01;10.23;;;2.90;;
64649;SDS011;51061;45.258;38.112;2022-09-03T03:40:27;9.43;;;2.75;;
64649;SDS011;51061;45.258;38.112;2022-09-03T03:42:53;10.75;;;2.50;;
64649;SDS011;51061;45.258;38.112;2022-09-03T03:45:22;6.30;;;2.85;;
64649;SDS011;51061;45.258;38.112;2022-09-03T03:47:48;12.63;;;2.70;;
64649;SDS011;51061;45.258;38.112;2022-09-03T03:50:14;8.90;;;2.42;;
64649;SDS011;51061;45.258;38.112;2022-09-03T03:52:41;9.45;;;2.30;;
64649;SDS011;51061;45.258;38.112;2022-09-03T03:55:08;5.10;;;2.50;;
64649;SDS011;51061;45.258;38.112;2022-09-03T03:57:34;11.23;;;2.47;;
64649;SDS011;51061;45.258;38.112;2022-09-03T04:00:00;12.80;;;2.30;;
64649;SDS011;51061;45.258;38.112;2022-09-03T04:02:39;12.70;;;2.40;;
64649;SDS011;51061;45.258;38.112;2022-09-03T04:05:05;6.60;;;2.53;;
64649;SDS011;51061;45.258;38.112;2022-09-03T04:07:32;18.20;;;3.13;;
64649;SDS011;51061;45.258;38.112;2022-09-03T04:12:25;13.00;;;2.40;;
64649;SDS011;51061;45.258;38.112;2022-09-03T04:14:52;12.23;;;2.50;;
64649;SDS011;51061;45.258;38.112;2022-09-03T04:17:18;5.13;;;2.38;;
64649;SDS011;51061;45.258;38.112;2022-09-03T04:22:12;12.13;;;3.20;;
64649;SDS011;51061;45.258;38.112;2022-09-03T04:24:40;7.38;;;2.63;;
64649;SDS011;51061;45.258;38.112;2022-09-03T04:27:06;13.52;;;2.80;;
64649;SDS011;51061;45.258;38.112;2022-09-03T04:31:58;7.32;;;2.60;;
64649;SDS011;51061;45.258;38.112;2022-09-03T04:34:42;14.88;;;3.05;;
64649;SDS011;51061;45.258;38.112;2022-09-03T04:39:35;12.52;;;2.63;;
64649;SDS011;51061;45.258;38.112;2022-09-03T04:42:01;13.75;;;2.40;;
64649;SDS011;51061;45.258;38.112;2022-09-03T04:44:27;9.48;;;2.50;;
64649;SDS011;51061;45.258;38.112;2022-09-03T04:49:19;18.55;;;3.17;;
64649;SDS011;51061;45.258;38.112;2022-09-03T04:51:45;17.75;;;2.75;;
64649;SDS011;51061;45.258;38.112;2022-09-03T04:54:11;16.70;;;3.33;;
64649;SDS011;51061;45.258;38.112;2022-09-03T04:59:04;14.68;;;3.38;;
64649;SDS011;51061;45.258;38.112;2022-09-03T05:01:33;11.15;;;2.92;;
64649;SDS011;51061;45.258;38.112;2022-09-03T05:04:00;9.82;;;3.00;;
64649;SDS011;51061;45.258;38.112;2022-09-03T05:06:27;5.80;;;2.38;;
64649;SDS011;51061;45.258;38.112;2022-09-03T05:08:55;5.32;;;2.55;;
64649;SDS011;51061;45.258;38.112;2022-09-03T05:11:22;14.90;;;2.60;;
64649;SDS011;51061;45.258;38.112;2022-09-03T05:13:50;10.90;;;2.83;;
64649;SDS011;51061;45.258;38.112;2022-09-03T05:16:18;11.02;;;2.60;;
64649;SDS011;51061;45.258;38.112;2022-09-03T05:18:45;8.82;;;2.25;;
64649;SDS011;51061;45.258;38.112;2022-09-03T05:21:12;8.63;;;2.47;;
64649;SDS011;51061;45.258;38.112;2022-09-03T05:23:41;9.18;;;2.20;;
64649;SDS011;51061;45.258;38.112;2022-09-03T05:26:10;24.42;;;2.42;;
64649;SDS011;51061;45.258;38.112;2022-09-03T05:28:42;10.35;;;3.08;;
64649;SDS011;51061;45.258;38.112;2022-09-03T05:31:13;6.57;;;2.28;;
64649;SDS011;51061;45.258;38.112;2022-09-03T05:33:46;8.57;;;2.38;;
64649;SDS011;51061;45.258;38.112;2022-09-03T05:36:14;6.00;;;2.65;;
64649;SDS011;51061;45.258;38.112;2022-09-03T05:38:45;19.05;;;2.67;;
64649;SDS011;51061;45.258;38.112;2022-09-03T05:41:12;6.25;;;2.58;;
64649;SDS011;51061;45.258;38.112;2022-09-03T05:43:39;9.98;;;2.60;;
64649;SDS011;51061;45.258;38.112;2022-09-03T05:46:06;15.80;;;2.72;;
64649;SDS011;51061;45.258;38.112;2022-09-03T05:48:38;12.63;;;2.30;;
64649;SDS011;51061;45.258;38.112;2022-09-03T05:51:06;11.07;;;3.22;;
64649;SDS011;51061;45.258;38.112;2022-09-03T05:53:34;13.32;;;2.35;;
64649;SDS011;51061;45.258;38.112;2022-09-03T05:56:03;13.25;;;2.75;;
64649;SDS011;51061;45.258;38.112;2022-09-03T05:58:38;11.45;;;2.17;;
64649;SDS011;51061;45.258;38.112;2022-09-03T06:01:08;9.07;;;2.28;;
64649;SDS011;51061;45.258;38.112;2022-09-03T06:03:35;12.25;;;2.50;;
64649;SDS011;51061;45.258;38.112;2022-09-03T06:06:01;10.43;;;2.70;;
64649;SDS011;51061;45.258;38.112;2022-09-03T06:08:29;15.55;;;2.50;;
64649;SDS011;51061;45.258;38.112;2022-09-03T06:10:59;8.60;;;2.33;;
64649;SDS011;51061;45.258;38.112;2022-09-03T06:13:27;6.10;;;2.17;;
64649;SDS011;51061;45.258;38.112;2022-09-03T06:15:57;16.33;;;2.70;;
64649;SDS011;51061;45.258;38.112;2022-09-03T06:18:25;15.57;;;3.00;;
64649;SDS011;51061;45.258;38.112;2022-09-03T06:20:58;12.55;;;3.28;;
64649;SDS011;51061;45.258;38.112;2022-09-03T06:23:27;11.20;;;2.58;;
64649;SDS011;51061;45.258;38.112;2022-09-03T06:26:00;16.77;;;2.90;;
64649;SDS011;51061;45.258;38.112;2022-09-03T06:28:40;6.00;;;2.20;;
64649;SDS011;51061;45.258;38.112;2022-09-03T06:31:13;10.82;;;2.65;;
64649;SDS011;51061;45.258;38.112;2022-09-03T06:33:41;11.18;;;2.63;;
64649;SDS011;51061;45.258;38.112;2022-09-03T06:36:09;10.00;;;2.55;;
64649;SDS011;51061;45.258;38.112;2022-09-03T06:38:37;13.45;;;3.33;;
64649;SDS011;51061;45.258;38.112;2022-09-03T06:41:08;7.38;;;2.40;;
64649;SDS011;51061;45.258;38.112;2022-09-03T06:43:39;8.50;;;2.67;;
64649;SDS011;51061;45.258;38.112;2022-09-03T06:46:09;15.65;;;2.92;;
64649;SDS011;51061;45.258;38.112;2022-09-03T06:48:38;13.00;;;2.80;;
64649;SDS011;51061;45.258;38.112;2022-09-03T06:51:06;14.35;;;2.65;;
64649;SDS011;51061;45.258;38.112;2022-09-03T06:53:37;15.70;;;3.22;;
64649;SDS011;51061;45.258;38.112;2022-09-03T06:56:06;8.93;;;2.60;;
64649;SDS011;51061;45.258;38.112;2022-09-03T06:58:35;8.70;;;2.63;;
64649;SDS011;51061;45.258;38.112;2022-09-03T07:01:22;6.38;;;2.45;;
64649;SDS011;51061;45.258;38.112;2022-09-03T07:03:55;11.32;;;2.80;;
64649;SDS011;51061;45.258;38.112;2022-09-03T07:06:24;9.20;;;2.47;;
64649;SDS011;51061;45.258;38.112;2022-09-03T07:08:52;9.15;;;2.58;;
64649;SDS011;51061;45.258;38.112;2022-09-03T07:11:21;10.15;;;2.72;;
64649;SDS011;51061;45.258;38.112;2022-09-03T07:13:51;15.48;;;2.80;;
64649;SDS011;51061;45.258;38.112;2022-09-03T07:16:24;9.77;;;2.50;;
64649;SDS011;51061;45.258;38.112;2022-09-03T07:18:52;9.80;;;2.95;;
64649;SDS011;51061;45.258;38.112;2022-09-03T07:21:22;10.52;;;2.88;;
64649;SDS011;51061;45.258;38.112;2022-09-03T07:23:53;7.30;;;2.70;;
64649;SDS011;51061;45.258;38.112;2022-09-03T07:26:22;13.82;;;3.80;;
64649;SDS011;51061;45.258;38.112;2022-09-03T07:28:49;7.75;;;2.50;;
64649;SDS011;51061;45.258;38.112;2022-09-03T07:31:23;13.38;;;2.95;;
64649;SDS011;51061;45.258;38.112;2022-09-03T07:33:53;13.70;;;3.40;;
64649;SDS011;51061;45.258;38.112;2022-09-03T07:36:24;11.63;;;3.08;;
64649;SDS011;51061;45.258;38.112;2022-09-03T07:38:56;10.90;;;2.90;;
64649;SDS011;51061;45.258;38.112;2022-09-03T07:41:24;7.05;;;2.50;;
64649;SDS011;51061;45.258;38.112;2022-09-03T07:43:51;10.65;;;2.40;;
64649;SDS011;51061;45.258;38.112;2022-09-03T07:46:19;7.00;;;3.00;;
64649;SDS011;51061;45.258;38.112;2022-09-03T07:48:50;11.73;;;3.08;;
64649;SDS011;51061;45.258;38.112;2022-09-03T07:51:22;10.38;;;4.00;;
64649;SDS011;51061;45.258;38.112;2022-09-03T07:53:51;9.90;;;3.35;;
64649;SDS011;51061;45.258;38.112;2022-09-03T07:56:25;17.40;;;3.22;;
64649;SDS011;51061;45.258;38.112;2022-09-03T07:58:51;13.07;;;5.40;;
64649;SDS011;51061;45.258;38.112;2022-09-03T08:01:20;9.32;;;3.38;;
64649;SDS011;51061;45.258;38.112;2022-09-03T08:03:48;18.73;;;3.60;;
64649;SDS011;51061;45.258;38.112;2022-09-03T08:06:16;12.50;;;3.40;;
64649;SDS011;51061;45.258;38.112;2022-09-03T08:08:44;10.85;;;3.00;;
64649;SDS011;51061;45.258;38.112;2022-09-03T08:13:44;17.52;;;3.30;;
64649;SDS011;51061;45.258;38.112;2022-09-03T08:16:13;13.88;;;3.33;;
64649;SDS011;51061;45.258;38.112;2022-09-03T08:18:41;18.25;;;3.15;;
64649;SDS011;51061;45.258;38.112;2022-09-03T08:21:08;17.42;;;3.80;;
64649;SDS011;51061;45.258;38.112;2022-09-03T08:23:39;15.18;;;3.63;;
64649;SDS011;51061;45.258;38.112;2022-09-03T08:26:10;17.00;;;3.63;;
64649;SDS011;51061;45.258;38.112;2022-09-03T08:28:36;14.20;;;3.35;;
64649;SDS011;51061;45.258;38.112;2022-09-03T08:31:06;16.27;;;3.47;;
64649;SDS011;51061;45.258;38.112;2022-09-03T08:33:37;12.02;;;3.28;;
64649;SDS011;51061;45.258;38.112;2022-09-03T08:36:10;14.65;;;3.20;;
64649;SDS011;51061;45.258;38.112;2022-09-03T08:38:37;13.65;;;4.05;;
64649;SDS011;51061;45.258;38.112;2022-09-03T08:41:15;16.63;;;3.20;;
64649;SDS011;51061;45.258;38.112;2022-09-03T08:46:44;16.92;;;4.05;;
64649;SDS011;51061;45.258;38.112;2022-09-03T08:49:17;21.27;;;3.90;;
64649;SDS011;51061;45.258;38.112;2022-09-03T08:51:52;11.75;;;3.42;;
64649;SDS011;51061;45.258;38.112;2022-09-03T08:54:22;13.15;;;3.58;;
64649;SDS011;51061;45.258;38.112;2022-09-03T08:56:51;22.40;;;4.32;;
64649;SDS011;51061;45.258;38.112;2022-09-03T08:59:18;18.95;;;3.97;;
64649;SDS011;51061;45.258;38.112;2022-09-03T09:04:40;18.53;;;3.20;;
64649;SDS011;51061;45.258;38.112;2022-09-03T09:10:30;14.68;;;3.42;;
64649;SDS011;51061;45.258;38.112;2022-09-03T09:13:39;12.50;;;3.72;;
64649;SDS011;51061;45.258;38.112;2022-09-03T09:19:10;12.82;;;4.00;;
64649;SDS011;51061;45.258;38.112;2022-09-03T09:21:48;12.13;;;3.78;;
64649;SDS011;51061;45.258;38.112;2022-09-03T09:26:54;10.95;;;3.65;;
64649;SDS011;51061;45.258;38.112;2022-09-03T09:29:24;12.70;;;3.70;;
64649;SDS011;51061;45.258;38.112;2022-09-03T09:31:54;14.65;;;3.72;;
64649;SDS011;51061;45.258;38.112;2022-09-03T09:34:21;18.85;;;5.03;;
64649;SDS011;51061;45.258;38.112;2022-09-03T09:36:48;14.38;;;3.60;;
64649;SDS011;51061;45.258;38.112;2022-09-03T09:39:17;14.85;;;3.97;;
64649;SDS011;51061;45.258;38.112;2022-09-03T09:41:57;12.60;;;3.78;;
64649;SDS011;51061;45.258;38.112;2022-09-03T09:44:29;13.80;;;4.07;;
64649;SDS011;51061;45.258;38.112;2022-09-03T09:47:05;14.38;;;3.55;;
64649;SDS011;51061;45.258;38.112;2022-09-03T09:49:37;11.30;;;3.78;;
64649;SDS011;51061;45.258;38.112;2022-09-03T09:52:16;10.90;;;3.20;;
64649;SDS011;51061;45.258;38.112;2022-09-03T09:54:45;14.75;;;3.90;;
64649;SDS011;51061;45.258;38.112;2022-09-03T09:57:15;16.13;;;4.07;;
64649;SDS011;51061;45.258;38.112;2022-09-03T09:59:46;15.60;;;3.45;;
64649;SDS011;51061;45.258;38.112;2022-09-03T10:02:23;14.10;;;3.45;;
64649;SDS011;51061;45.258;38.112;2022-09-03T10:04:52;11.93;;;3.30;;
64649;SDS011;51061;45.258;38.112;2022-09-03T10:07:39;13.95;;;4.13;;
64649;SDS011;51061;45.258;38.112;2022-09-03T10:10:20;11.98;;;4.53;;
64649;SDS011;51061;45.258;38.112;2022-09-03T10:12:49;13.35;;;3.92;;
64649;SDS011;51061;45.258;38.112;2022-09-03T10:21:09;14.25;;;3.67;;
64649;SDS011;51061;45.258;38.112;2022-09-03T10:23:59;12.77;;;4.10;;
64649;SDS011;51061;45.258;38.112;2022-09-03T10:26:44;14.73;;;4.45;;
64649;SDS011;51061;45.258;38.112;2022-09-03T10:29:11;13.82;;;3.80;;
64649;SDS011;51061;45.258;38.112;2022-09-03T10:34:28;16.85;;;4.57;;
64649;SDS011;51061;45.258;38.112;2022-09-03T10:45:45;14.00;;;3.67;;
64649;SDS011;51061;45.258;38.112;2022-09-03T10:51:41;15.80;;;4.35;;
64649;SDS011;51061;45.258;38.112;2022-09-03T10:57:11;15.23;;;4.15;;
64649;SDS011;51061;45.258;38.112;2022-09-03T10:59:59;13.02;;;4.60;;
64649;SDS011;51061;45.258;38.112;2022-09-03T11:05:57;20.45;;;4.85;;
64649;SDS011;51061;45.258;38.112;2022-09-03T11:08:35;26.35;;;5.07;;
64649;SDS011;51061;45.258;38.112;2022-09-03T11:11:11;9.63;;;4.20;;
64649;SDS011;51061;45.258;38.112;2022-09-03T11:16:18;16.33;;;4.65;;
64649;SDS011;51061;45.258;38.112;2022-09-03T11:18:54;16.67;;;4.95;;
64649;SDS011;51061;45.258;38.112;2022-09-03T11:21:25;19.70;;;4.95;;
64649;SDS011;51061;45.258;38.112;2022-09-03T11:24:00;19.70;;;4.78;;
64649;SDS011;51061;45.258;38.112;2022-09-03T11:26:33;17.17;;;4.72;;
64649;SDS011;51061;45.258;38.112;2022-09-03T11:29:11;12.70;;;4.13;;
64649;SDS011;51061;45.258;38.112;2022-09-03T11:34:45;18.20;;;4.32;;
64649;SDS011;51061;45.258;38.112;2022-09-03T11:37:22;14.25;;;4.80;;
64649;SDS011;51061;45.258;38.112;2022-09-03T11:39:54;17.30;;;4.78;;
64649;SDS011;51061;45.258;38.112;2022-09-03T11:42:34;22.20;;;4.20;;
64649;SDS011;51061;45.258;38.112;2022-09-03T11:47:47;14.05;;;4.32;;
64649;SDS011;51061;45.258;38.112;2022-09-03T11:50:30;16.10;;;4.60;;
64649;SDS011;51061;45.258;38.112;2022-09-03T11:53:21;21.33;;;5.07;;
64649;SDS011;51061;45.258;38.112;2022-09-03T12:01:29;15.15;;;4.53;;
64649;SDS011;51061;45.258;38.112;2022-09-03T12:04:05;20.80;;;5.07;;
64649;SDS011;51061;45.258;38.112;2022-09-03T12:15:09;15.57;;;3.90;;
64649;SDS011;51061;45.258;38.112;2022-09-03T12:18:07;18.70;;;4.78;;
64649;SDS011;51061;45.258;38.112;2022-09-03T12:20:46;15.13;;;4.07;;
64649;SDS011;51061;45.258;38.112;2022-09-03T12:26:21;19.38;;;6.07;;
64649;SDS011;51061;45.258;38.112;2022-09-03T12:28:49;16.83;;;4.13;;
64649;SDS011;51061;45.258;38.112;2022-09-03T12:31:21;15.88;;;4.72;;
64649;SDS011;51061;45.258;38.112;2022-09-03T12:34:18;15.05;;;4.60;;
64649;SDS011;51061;45.258;38.112;2022-09-03T12:36:47;15.95;;;4.20;;
64649;SDS011;51061;45.258;38.112;2022-09-03T12:39:17;18.95;;;4.32;;
64649;SDS011;51061;45.258;38.112;2022-09-03T12:42:01;20.35;;;4.25;;
64649;SDS011;51061;45.258;38.112;2022-09-03T12:44:29;13.30;;;4.35;;
64649;SDS011;51061;45.258;38.112;2022-09-03T12:47:01;19.67;;;4.35;;
64649;SDS011;51061;45.258;38.112;2022-09-03T12:49:38;12.00;;;3.78;;
64649;SDS011;51061;45.258;38.112;2022-09-03T12:52:07;42.15;;;7.63;;
64649;SDS011;51061;45.258;38.112;2022-09-03T12:55:00;13.68;;;4.25;;
64649;SDS011;51061;45.258;38.112;2022-09-03T12:57:36;17.70;;;4.50;;
64649;SDS011;51061;45.258;38.112;2022-09-03T13:02:43;17.23;;;4.95;;
64649;SDS011;51061;45.258;38.112;2022-09-03T13:05:16;20.00;;;4.38;;
64649;SDS011;51061;45.258;38.112;2022-09-03T13:07:48;21.38;;;4.20;;
64649;SDS011;51061;45.258;38.112;2022-09-03T13:10:25;21.63;;;5.10;;
64649;SDS011;51061;45.258;38.112;2022-09-03T13:13:00;16.45;;;4.47;;
64649;SDS011;51061;45.258;38.112;2022-09-03T13:15:28;15.98;;;4.00;;
64649;SDS011;51061;45.258;38.112;2022-09-03T13:31:49;17.83;;;5.30;;
64649;SDS011;51061;45.258;38.112;2022-09-03T13:34:45;15.65;;;4.40;;
64649;SDS011;51061;45.258;38.112;2022-09-03T13:46:26;22.88;;;5.20;;
64649;SDS011;51061;45.258;38.112;2022-09-03T13:49:04;16.42;;;5.05;;
64649;SDS011;51061;45.258;38.112;2022-09-03T13:52:00;16.15;;;5.03;;
64649;SDS011;51061;45.258;38.112;2022-09-03T13:54:39;22.48;;;5.70;;
64649;SDS011;51061;45.258;38.112;2022-09-03T14:00:21;30.77;;;5.80;;
64649;SDS011;51061;45.258;38.112;2022-09-03T14:03:02;24.17;;;5.28;;
64649;SDS011;51061;45.258;38.112;2022-09-03T14:08:27;19.63;;;5.10;;
64649;SDS011;51061;45.258;38.112;2022-09-03T14:22:16;19.13;;;5.50;;
64649;SDS011;51061;45.258;38.112;2022-09-03T14:24:54;20.65;;;5.43;;
64649;SDS011;51061;45.258;38.112;2022-09-03T14:27:26;23.02;;;6.25;;
64649;SDS011;51061;45.258;38.112;2022-09-03T14:29:57;23.35;;;5.47;;
64649;SDS011;51061;45.258;38.112;2022-09-03T14:32:36;27.52;;;5.85;;
64649;SDS011;51061;45.258;38.112;2022-09-03T14:35:20;23.65;;;5.18;;
64649;SDS011;51061;45.258;38.112;2022-09-03T14:54:26;25.05;;;5.65;;
64649;SDS011;51061;45.258;38.112;2022-09-03T14:57:15;31.05;;;6.07;;
64649;SDS011;51061;45.258;38.112;2022-09-03T15:00:00;23.73;;;6.50;;
64649;SDS011;51061;45.258;38.112;2022-09-03T15:06:01;32.92;;;6.30;;
64649;SDS011;51061;45.258;38.112;2022-09-03T15:08:42;26.70;;;6.28;;
64649;SDS011;51061;45.258;38.112;2022-09-03T15:11:16;22.98;;;6.40;;
64649;SDS011;51061;45.258;38.112;2022-09-03T15:13:47;25.52;;;7.18;;
64649;SDS011;51061;45.258;38.112;2022-09-03T15:19:00;39.60;;;7.78;;
64649;SDS011;51061;45.258;38.112;2022-09-03T15:24:36;28.30;;;7.63;;
64649;SDS011;51061;45.258;38.112;2022-09-03T15:27:10;31.73;;;6.72;;
64649;SDS011;51061;45.258;38.112;2022-09-03T15:30:10;25.98;;;7.95;;
64649;SDS011;51061;45.258;38.112;2022-09-03T15:35:38;37.08;;;11.18;;
64649;SDS011;51061;45.258;38.112;2022-09-03T15:44:48;114.78;;;45.85;;
64649;SDS011;51061;45.258;38.112;2022-09-03T15:50:36;167.93;;;70.50;;
64649;SDS011;51061;45.258;38.112;2022-09-03T15:55:41;119.70;;;44.05;;
64649;SDS011;51061;45.258;38.112;2022-09-03T16:03:10;49.35;;;13.35;;
64649;SDS011;51061;45.258;38.112;2022-09-03T16:05:53;49.83;;;11.50;;
64649;SDS011;51061;45.258;38.112;2022-09-03T16:08:33;58.35;;;13.50;;
64649;SDS011;51061;45.258;38.112;2022-09-03T16:11:07;50.95;;;12.43;;
64649;SDS011;51061;45.258;38.112;2022-09-03T16:16:23;72.07;;;21.70;;
64649;SDS011;51061;45.258;38.112;2022-09-03T16:19:15;79.90;;;24.95;;
64649;SDS011;51061;45.258;38.112;2022-09-03T16:24:27;126.07;;;41.50;;
64649;SDS011;51061;45.258;38.112;2022-09-03T16:27:18;119.95;;;43.28;;
64649;SDS011;51061;45.258;38.112;2022-09-03T16:30:09;112.78;;;38.72;;
64649;SDS011;51061;45.258;38.112;2022-09-03T16:35:43;82.10;;;28.55;;
64649;SDS011;51061;45.258;38.112;2022-09-03T16:38:52;71.68;;;23.65;;
64649;SDS011;51061;45.258;38.112;2022-09-03T16:47:01;105.70;;;35.30;;
64649;SDS011;51061;45.258;38.112;2022-09-03T16:50:51;72.65;;;24.48;;
64649;SDS011;51061;45.258;38.112;2022-09-03T16:53:15;80.70;;;25.50;;
64649;SDS011;51061;45.258;38.112;2022-09-03T16:56:15;96.75;;;32.28;;
64649;SDS011;51061;45.258;38.112;2022-09-03T17:02:10;88.18;;;27.23;;
64649;SDS011;51061;45.258;38.112;2022-09-03T17:07:35;88.07;;;27.60;;
64649;SDS011;51061;45.258;38.112;2022-09-03T17:13:10;100.18;;;32.42;;
64649;SDS011;51061;45.258;38.112;2022-09-03T17:15:59;86.07;;;28.60;;
64649;SDS011;51061;45.258;38.112;2022-09-03T17:18:48;100.77;;;32.80;;
64649;SDS011;51061;45.258;38.112;2022-09-03T17:21:49;149.02;;;52.20;;
64649;SDS011;51061;45.258;38.112;2022-09-03T17:24:34;161.25;;;57.80;;
64649;SDS011;51061;45.258;38.112;2022-09-03T17:27:27;175.90;;;67.05;;
64649;SDS011;51061;45.258;38.112;2022-09-03T17:30:27;184.82;;;62.88;;
64649;SDS011;51061;45.258;38.112;2022-09-03T17:36:02;145.88;;;51.03;;
64649;SDS011;51061;45.258;38.112;2022-09-03T17:49:25;112.65;;;38.65;;
64649;SDS011;51061;45.258;38.112;2022-09-03T17:52:01;102.70;;;34.85;;
64649;SDS011;51061;45.258;38.112;2022-09-03T17:57:14;126.13;;;39.92;;
64649;SDS011;51061;45.258;38.112;2022-09-03T17:59:57;93.40;;;28.08;;
64649;SDS011;51061;45.258;38.112;2022-09-03T18:08:00;127.88;;;37.78;;
64649;SDS011;51061;45.258;38.112;2022-09-03T18:16:24;104.30;;;29.42;;
64649;SDS011;51061;45.258;38.112;2022-09-03T18:18:52;75.43;;;20.52;;
64649;SDS011;51061;45.258;38.112;2022-09-03T18:21:42;63.00;;;16.15;;
64649;SDS011;51061;45.258;38.112;2022-09-03T18:30:16;86.50;;;23.08;;
64649;SDS011;51061;45.258;38.112;2022-09-03T18:33:02;118.95;;;32.33;;
64649;SDS011;51061;45.258;38.112;2022-09-03T18:35:47;109.57;;;32.00;;
64649;SDS011;51061;45.258;38.112;2022-09-03T18:38:46;99.43;;;31.38;;
64649;SDS011;51061;45.258;38.112;2022-09-03T18:41:46;122.35;;;35.80;;
64649;SDS011;51061;45.258;38.112;2022-09-03T18:45:20;97.43;;;28.83;;
64649;SDS011;51061;45.258;38.112;2022-09-03T18:48:17;92.43;;;26.55;;
64649;SDS011;51061;45.258;38.112;2022-09-03T18:51:12;88.05;;;25.75;;
64649;SDS011;51061;45.258;38.112;2022-09-03T18:54:36;81.15;;;24.08;;
64649;SDS011;51061;45.258;38.112;2022-09-03T18:57:30;99.95;;;31.42;;
64649;SDS011;51061;45.258;38.112;2022-09-03T19:00:22;97.40;;;26.55;;
64649;SDS011;51061;45.258;38.112;2022-09-03T19:09:18;92.10;;;24.95;;
64649;SDS011;51061;45.258;38.112;2022-09-03T19:15:26;65.70;;;19.33;;
64649;SDS011;51061;45.258;38.112;2022-09-03T19:21:46;65.65;;;18.35;;
64649;SDS011;51061;45.258;38.112;2022-09-03T19:25:01;59.88;;;17.50;;
64649;SDS011;51061;45.258;38.112;2022-09-03T19:33:42;67.38;;;15.95;;
64649;SDS011;51061;45.258;38.112;2022-09-03T19:55:23;47.45;;;13.25;;
64649;SDS011;51061;45.258;38.112;2022-09-03T19:58:10;51.53;;;14.70;;
64649;SDS011;51061;45.258;38.112;2022-09-03T20:00:57;59.60;;;18.00;;
64649;SDS011;51061;45.258;38.112;2022-09-03T20:03:42;61.97;;;17.00;;
64649;SDS011;51061;45.258;38.112;2022-09-03T20:06:27;69.15;;;17.67;;
64649;SDS011;51061;45.258;38.112;2022-09-03T20:12:02;50.75;;;12.57;;
64649;SDS011;51061;45.258;38.112;2022-09-03T20:14:32;54.30;;;14.13;;
64649;SDS011;51061;45.258;38.112;2022-09-03T20:25:41;50.15;;;14.80;;
64649;SDS011;51061;45.258;38.112;2022-09-03T20:31:23;51.85;;;12.85;;
64649;SDS011;51061;45.258;38.112;2022-09-03T20:45:21;50.38;;;12.55;;
64649;SDS011;51061;45.258;38.112;2022-09-03T20:51:14;53.05;;;12.27;;
64649;SDS011;51061;45.258;38.112;2022-09-03T20:56:31;48.90;;;12.80;;
64649;SDS011;51061;45.258;38.112;2022-09-03T21:13:20;33.60;;;8.52;;
64649;SDS011;51061;45.258;38.112;2022-09-03T21:16:02;46.55;;;9.40;;
64649;SDS011;51061;45.258;38.112;2022-09-03T21:25:07;45.03;;;10.95;;
64649;SDS011;51061;45.258;38.112;2022-09-03T21:28:24;39.50;;;12.40;;
64649;SDS011;51061;45.258;38.112;2022-09-03T21:31:10;46.05;;;12.73;;